createdAt,value
2023-05-08T00:01:19.805Z,98849.00
2023-05-08T00:03:46.452Z,98862.00
2023-05-08T00:06:13.236Z,98854.00
2023-05-08T00:08:40.317Z,98859.00
2023-05-08T00:11:06.847Z,98857.00
2023-05-08T00:13:33.462Z,98852.00
2023-05-08T00:16:00.048Z,98852.00
2023-05-08T00:18:26.567Z,98859.00
2023-05-08T00:20:53.266Z,98849.00
2023-05-08T00:23:22.010Z,98849.00
2023-05-08T00:25:48.515Z,98851.00
2023-05-08T00:28:14.999Z,98855.00
2023-05-08T00:30:42.541Z,98857.00
2023-05-08T00:33:09.650Z,98855.00
2023-05-08T00:35:36.416Z,98855.00
2023-05-08T00:38:03.222Z,98856.00
2023-05-08T00:40:29.789Z,98850.00
2023-05-08T00:42:56.299Z,98860.00
2023-05-08T00:45:22.846Z,98861.00
2023-05-08T00:47:50.424Z,98860.00
2023-05-08T00:50:17.929Z,98860.00
2023-05-08T00:52:44.463Z,98862.00
2023-05-08T00:55:11.063Z,98852.00
2023-05-08T00:57:38.685Z,98858.00
2023-05-08T01:00:05.884Z,98853.00
2023-05-08T01:02:32.662Z,98858.00
2023-05-08T01:04:59.904Z,98857.00
2023-05-08T01:07:27.649Z,98854.00
2023-05-08T01:09:54.117Z,98852.00
2023-05-08T01:12:29.236Z,98852.00
2023-05-08T01:15:14.154Z,98854.00
2023-05-08T01:17:56.335Z,98855.00
2023-05-08T01:20:46.090Z,98851.00
2023-05-08T01:23:47.376Z,98849.00
2023-05-08T01:26:13.918Z,98855.00
2023-05-08T01:29:02.366Z,98853.00
2023-05-08T01:32:01.157Z,98853.00
2023-05-08T01:34:32.490Z,98856.00
2023-05-08T01:37:12.577Z,98855.00
2023-05-08T01:40:10.641Z,98855.00
2023-05-08T01:42:53.629Z,98855.00
2023-05-08T01:45:26.918Z,98853.00
2023-05-08T01:48:08.116Z,98861.00
2023-05-08T01:50:40.702Z,98865.00
2023-05-08T01:53:36.765Z,98871.00
2023-05-08T01:56:12.004Z,98870.00
2023-05-08T01:58:39.408Z,98872.00
2023-05-08T02:01:06.260Z,98876.00
2023-05-08T02:03:35.245Z,98875.00
2023-05-08T02:06:02.737Z,98883.00
2023-05-08T02:08:30.838Z,98892.00
2023-05-08T02:10:59.242Z,98892.00
2023-05-08T02:13:27.760Z,98889.00
2023-05-08T02:15:57.236Z,98897.00
2023-05-08T02:18:25.021Z,98890.00
2023-05-08T02:20:53.756Z,98893.00
2023-05-08T02:23:22.288Z,98892.00
2023-05-08T02:25:50.748Z,98885.00
2023-05-08T02:28:18.754Z,98886.00
2023-05-08T02:30:46.976Z,98883.00
2023-05-08T02:33:14.693Z,98881.00
2023-05-08T02:35:44.423Z,98889.00
2023-05-08T02:38:13.227Z,98889.00
2023-05-08T02:40:45.602Z,98888.00
2023-05-08T02:43:12.588Z,98887.00
2023-05-08T02:46:26.476Z,98889.00
2023-05-08T02:49:04.770Z,98887.00
2023-05-08T02:51:46.912Z,98884.00
2023-05-08T02:54:36.556Z,98885.00
2023-05-08T02:57:22.862Z,98888.00
2023-05-08T03:00:00.798Z,98889.00
2023-05-08T03:02:35.446Z,98885.00
2023-05-08T03:05:24.312Z,98892.00
2023-05-08T03:07:54.655Z,98890.00
2023-05-08T03:10:28.186Z,98886.00
2023-05-08T03:12:57.721Z,98883.00
2023-05-08T03:15:28.116Z,98881.00
2023-05-08T03:18:02.932Z,98882.00
2023-05-08T03:20:33.861Z,98886.00
2023-05-08T03:23:03.239Z,98893.00
2023-05-08T03:25:30.879Z,98891.00
2023-05-08T03:27:58.469Z,98889.00
2023-05-08T03:30:27.475Z,98892.00
2023-05-08T03:33:01.866Z,98887.00
2023-05-08T03:35:28.714Z,98889.00
2023-05-08T03:37:55.591Z,98890.00
2023-05-08T03:40:22.293Z,98884.00
2023-05-08T03:42:50.442Z,98881.00
2023-05-08T03:45:18.375Z,98880.00
2023-05-08T03:47:45.382Z,98880.00
2023-05-08T03:50:12.326Z,98875.00
2023-05-08T03:52:39.561Z,98879.00
2023-05-08T03:55:06.727Z,98879.00
2023-05-08T03:57:45.691Z,98878.00
2023-05-08T04:00:21.803Z,98884.00
2023-05-08T04:03:03.213Z,98885.00
2023-05-08T04:05:37.853Z,98882.00
2023-05-08T04:08:20.276Z,98884.00
2023-05-08T04:10:54.895Z,98891.00
2023-05-08T04:13:28.314Z,98894.00
2023-05-08T04:16:09.555Z,98890.00
2023-05-08T04:18:41.786Z,98897.00
2023-05-08T04:21:11.253Z,98898.00
2023-05-08T04:23:41.962Z,98903.00
2023-05-08T04:26:11.579Z,98903.00
2023-05-08T04:28:38.874Z,98908.00
2023-05-08T04:31:05.984Z,98902.00
2023-05-08T04:33:34.825Z,98908.00
2023-05-08T04:36:03.297Z,98911.00
2023-05-08T04:38:31.149Z,98913.00
2023-05-08T04:40:57.716Z,98915.00
2023-05-08T04:43:24.637Z,98923.00
2023-05-08T04:45:51.275Z,98925.00
2023-05-08T04:48:18.945Z,98926.00
2023-05-08T04:50:45.489Z,98924.00
2023-05-08T04:53:12.054Z,98931.00
2023-05-08T04:55:39.028Z,98928.00
2023-05-08T04:58:06.018Z,98933.00
2023-05-08T05:00:32.629Z,98924.00
2023-05-08T05:02:59.357Z,98931.00
2023-05-08T05:05:26.625Z,98939.00
2023-05-08T05:07:53.210Z,98936.00
2023-05-08T05:10:21.018Z,98929.00
2023-05-08T05:12:47.604Z,98936.00
2023-05-08T05:15:14.493Z,98940.00
2023-05-08T05:17:41.386Z,98935.00
2023-05-08T05:20:08.914Z,98929.00
2023-05-08T05:22:36.322Z,98935.00
2023-05-08T05:25:02.994Z,98935.00
2023-05-08T05:27:29.591Z,98928.00
2023-05-08T05:29:56.090Z,98945.00
2023-05-08T05:32:22.587Z,98938.00
2023-05-08T05:34:49.174Z,98939.00
2023-05-08T05:37:15.718Z,98945.00
2023-05-08T05:39:42.225Z,98948.00
2023-05-08T05:42:09.205Z,98950.00
2023-05-08T05:44:36.644Z,98950.00
2023-05-08T05:47:05.208Z,98948.00
2023-05-08T05:49:32.096Z,98951.00
2023-05-08T05:51:58.591Z,98960.00
2023-05-08T05:54:25.203Z,98959.00
2023-05-08T05:56:51.905Z,98958.00
2023-05-08T05:59:18.544Z,98949.00
2023-05-08T06:01:45.643Z,98956.00
2023-05-08T06:04:12.241Z,98963.00
2023-05-08T06:06:39.273Z,98954.00
2023-05-08T06:09:07.063Z,98958.00
2023-05-08T06:11:33.665Z,98959.00
2023-05-08T06:14:00.485Z,98950.00
2023-05-08T06:16:27.138Z,98951.00
2023-05-08T06:18:53.665Z,98946.00
2023-05-08T06:21:20.309Z,98947.00
2023-05-08T06:23:46.828Z,98941.00
2023-05-08T06:26:13.465Z,98950.00
2023-05-08T06:28:40.059Z,98952.00
2023-05-08T06:31:06.586Z,98958.00
2023-05-08T06:33:33.078Z,98950.00
2023-05-08T06:35:59.611Z,98952.00
2023-05-08T06:38:26.079Z,98956.00
2023-05-08T06:40:53.877Z,98950.00
2023-05-08T06:43:20.971Z,98955.00
2023-05-08T06:45:47.453Z,98952.00
2023-05-08T06:48:14.012Z,98955.00
2023-05-08T06:50:40.815Z,98950.00
2023-05-08T06:53:07.965Z,98947.00
2023-05-08T06:55:34.498Z,98957.00
2023-05-08T06:58:01.054Z,98953.00
2023-05-08T07:00:27.794Z,98951.00
2023-05-08T07:02:54.322Z,98948.00
2023-05-08T07:05:21.147Z,98955.00
2023-05-08T07:07:47.710Z,98955.00
2023-05-08T07:10:14.206Z,98965.00
2023-05-08T07:12:41.046Z,98956.00
2023-05-08T07:15:24.155Z,98965.00
2023-05-08T07:17:51.673Z,98965.00
2023-05-08T07:20:18.268Z,98969.00
2023-05-08T07:22:44.929Z,98970.00
2023-05-08T07:25:11.689Z,98975.00
2023-05-08T07:27:38.414Z,98970.00
2023-05-08T07:30:05.387Z,98971.00
2023-05-08T07:32:32.227Z,98978.00
2023-05-08T07:34:58.927Z,98979.00
2023-05-08T07:37:25.777Z,98977.00
2023-05-08T07:39:52.339Z,98975.00
2023-05-08T07:42:18.874Z,98973.00
2023-05-08T07:44:54.483Z,98976.00
2023-05-08T07:47:21.808Z,98970.00
2023-05-08T07:49:48.339Z,98972.00
2023-05-08T07:52:14.862Z,98977.00
2023-05-08T07:54:41.345Z,98984.00
2023-05-08T07:57:07.900Z,98986.00
2023-05-08T07:59:34.393Z,98985.00
2023-05-08T08:02:00.958Z,98988.00
2023-05-08T08:04:27.863Z,98981.00
2023-05-08T08:06:55.218Z,98986.00
2023-05-08T08:09:22.336Z,98986.00
2023-05-08T08:11:48.854Z,98985.00
2023-05-08T08:14:15.859Z,98986.00
2023-05-08T08:16:45.104Z,98993.00
2023-05-08T08:19:11.690Z,98993.00
2023-05-08T08:21:44.777Z,98994.00
2023-05-08T08:24:11.339Z,99001.00
2023-05-08T08:26:37.836Z,99001.00
2023-05-08T08:29:04.593Z,99003.00
2023-05-08T08:31:31.268Z,98998.00
2023-05-08T08:33:58.170Z,98999.00
2023-05-08T08:36:24.641Z,98999.00
2023-05-08T08:38:51.458Z,99003.00
2023-05-08T08:41:17.958Z,99004.00
2023-05-08T08:43:44.621Z,98998.00
2023-05-08T08:46:15.166Z,99002.00
2023-05-08T08:48:46.908Z,99011.00
2023-05-08T08:51:28.343Z,99008.00
2023-05-08T08:54:06.091Z,99009.00
2023-05-08T08:56:33.508Z,99016.00
2023-05-08T08:59:00.611Z,99010.00
2023-05-08T09:01:29.352Z,99010.00
2023-05-08T09:03:59.810Z,99010.00
2023-05-08T09:06:27.641Z,99009.00
2023-05-08T09:08:56.611Z,99015.00
2023-05-08T09:11:23.291Z,99015.00
2023-05-08T09:13:50.265Z,99021.00
2023-05-08T09:16:17.310Z,99022.00
2023-05-08T09:18:44.081Z,99026.00
2023-05-08T09:21:11.426Z,99023.00
2023-05-08T09:23:54.940Z,99029.00
2023-05-08T09:26:33.433Z,99022.00
2023-05-08T09:29:11.889Z,99022.00
2023-05-08T09:31:41.673Z,99020.00
2023-05-08T09:34:09.833Z,99022.00
2023-05-08T09:36:36.457Z,99027.00
2023-05-08T09:39:03.459Z,99026.00
2023-05-08T09:41:29.984Z,99030.00
2023-05-08T09:44:04.390Z,99023.00
2023-05-08T09:46:32.764Z,99030.00
2023-05-08T09:49:00.702Z,99028.00
2023-05-08T09:51:29.089Z,99033.00
2023-05-08T09:53:57.320Z,99028.00
2023-05-08T09:56:39.389Z,99030.00
2023-05-08T09:59:23.197Z,99033.00
2023-05-08T10:01:50.829Z,99041.00
2023-05-08T10:04:17.346Z,99037.00
2023-05-08T10:06:43.973Z,99039.00
2023-05-08T10:09:14.993Z,99033.00
2023-05-08T10:11:51.914Z,99033.00
2023-05-08T10:14:19.817Z,99036.00
2023-05-08T10:16:49.222Z,99030.00
2023-05-08T10:19:17.519Z,99034.00
2023-05-08T10:21:49.764Z,99033.00
2023-05-08T10:24:32.991Z,99033.00
2023-05-08T10:27:14.087Z,99036.00
2023-05-08T10:29:53.651Z,99041.00
2023-05-08T10:32:21.741Z,99034.00
2023-05-08T10:35:01.252Z,99040.00
2023-05-08T10:37:29.927Z,99026.00
2023-05-08T10:39:57.918Z,99029.00
2023-05-08T10:42:34.043Z,99031.00
2023-05-08T10:45:06.041Z,99020.00
2023-05-08T10:47:47.948Z,99011.00
2023-05-08T10:50:23.397Z,99008.00
2023-05-08T10:53:02.014Z,99006.00
2023-05-08T10:55:30.911Z,99004.00
2023-05-08T10:58:17.079Z,99016.00
2023-05-08T11:00:52.893Z,99016.00
2023-05-08T11:03:31.941Z,99006.00
2023-05-08T11:06:01.228Z,99004.00
2023-05-08T11:08:29.229Z,98997.00
2023-05-08T11:10:59.335Z,98996.00
2023-05-08T11:13:32.344Z,98997.00
2023-05-08T11:15:59.214Z,98993.00
2023-05-08T11:18:32.494Z,98992.00
2023-05-08T11:21:15.815Z,98989.00
2023-05-08T11:23:42.359Z,98997.00
2023-05-08T11:26:16.402Z,98988.00
2023-05-08T11:28:58.694Z,98997.00
2023-05-08T11:31:54.047Z,98993.00
2023-05-08T11:34:50.107Z,98984.00
2023-05-08T11:37:18.289Z,98986.00
2023-05-08T11:39:44.817Z,98992.00
2023-05-08T11:42:33.681Z,98990.00
2023-05-08T11:45:12.910Z,98978.00
2023-05-08T11:47:45.952Z,98981.00
2023-05-08T11:50:14.010Z,98980.00
2023-05-08T11:52:43.090Z,98979.00
2023-05-08T11:55:11.767Z,98988.00
2023-05-08T11:57:38.641Z,98983.00
2023-05-08T12:00:10.794Z,98972.00
2023-05-08T12:02:42.607Z,98984.00
2023-05-08T12:05:11.240Z,98981.00
2023-05-08T12:07:46.349Z,98983.00
2023-05-08T12:10:14.017Z,98978.00
2023-05-08T12:12:42.055Z,98975.00
2023-05-08T12:15:13.620Z,98983.00
2023-05-08T12:17:40.873Z,98985.00
2023-05-08T12:20:16.185Z,98979.00
2023-05-08T12:22:50.709Z,98978.00
2023-05-08T12:25:18.685Z,98982.00
2023-05-08T12:27:45.677Z,98979.00
2023-05-08T12:30:14.434Z,98975.00
2023-05-08T12:32:42.378Z,98978.00
2023-05-08T12:35:10.381Z,98973.00
2023-05-08T12:37:37.327Z,98971.00
2023-05-08T12:40:05.327Z,98976.00
2023-05-08T12:42:45.046Z,98972.00
2023-05-08T12:45:25.832Z,98983.00
2023-05-08T12:47:53.681Z,98980.00
2023-05-08T12:50:21.792Z,98977.00
2023-05-08T12:52:51.149Z,98975.00
2023-05-08T12:55:21.427Z,98971.00
2023-05-08T12:57:49.350Z,98971.00
2023-05-08T13:00:17.324Z,98976.00
2023-05-08T13:02:54.584Z,98969.00
2023-05-08T13:05:24.338Z,98976.00
2023-05-08T13:07:51.426Z,98974.00
2023-05-08T13:10:23.972Z,98980.00
2023-05-08T13:12:52.207Z,98971.00
2023-05-08T13:15:18.766Z,98984.00
2023-05-08T13:17:45.333Z,98984.00
2023-05-08T13:20:12.168Z,98984.00
2023-05-08T13:22:38.812Z,98976.00
2023-05-08T13:25:06.060Z,98979.00
2023-05-08T13:27:32.527Z,98971.00
2023-05-08T13:29:59.377Z,98971.00
2023-05-08T13:32:25.994Z,98976.00
2023-05-08T13:34:55.243Z,98971.00
2023-05-08T13:37:25.380Z,98966.00
2023-05-08T13:39:51.873Z,98970.00
2023-05-08T13:42:18.330Z,98969.00
2023-05-08T13:44:44.840Z,98970.00
2023-05-08T13:47:11.348Z,98969.00
2023-05-08T13:49:37.850Z,98969.00
2023-05-08T13:52:04.543Z,98968.00
2023-05-08T13:54:31.128Z,98965.00
2023-05-08T13:56:57.707Z,98976.00
2023-05-08T13:59:24.431Z,98981.00
2023-05-08T14:01:51.033Z,98974.00
2023-05-08T14:04:19.087Z,98973.00
2023-05-08T14:06:46.568Z,98969.00
2023-05-08T14:09:13.059Z,98977.00
2023-05-08T14:11:39.571Z,98975.00
2023-05-08T14:14:06.107Z,98971.00
2023-05-08T14:16:33.020Z,98978.00
2023-05-08T14:18:59.600Z,98966.00
2023-05-08T14:21:26.135Z,98969.00
2023-05-08T14:23:52.569Z,98967.00
2023-05-08T14:26:19.808Z,98960.00
2023-05-08T14:28:46.334Z,98966.00
2023-05-08T14:31:12.943Z,98959.00
2023-05-08T14:33:39.570Z,98959.00
2023-05-08T14:36:06.393Z,98955.00
2023-05-08T14:38:32.883Z,98955.00
2023-05-08T14:41:03.095Z,98946.00
2023-05-08T14:43:30.888Z,98952.00
2023-05-08T14:45:57.441Z,98957.00
2023-05-08T14:48:24.054Z,98953.00
2023-05-08T14:50:50.613Z,98946.00
2023-05-08T14:53:17.286Z,98947.00
2023-05-08T14:55:44.131Z,98941.00
2023-05-08T14:58:10.978Z,98940.00
2023-05-08T15:00:37.568Z,98948.00
2023-05-08T15:03:04.226Z,98943.00
2023-05-08T15:05:33.367Z,98942.00
2023-05-08T15:08:01.461Z,98941.00
2023-05-08T15:10:28.107Z,98934.00
2023-05-08T15:12:55.022Z,98941.00
2023-05-08T15:15:21.917Z,98937.00
2023-05-08T15:17:48.599Z,98926.00
2023-05-08T15:20:15.210Z,98937.00
2023-05-08T15:22:41.773Z,98937.00
2023-05-08T15:25:08.471Z,98938.00
2023-05-08T15:27:35.208Z,98936.00
2023-05-08T15:30:01.755Z,98947.00
2023-05-08T15:32:28.308Z,98946.00
2023-05-08T15:34:54.799Z,98943.00
2023-05-08T15:37:21.414Z,98945.00
2023-05-08T15:39:49.731Z,98946.00
2023-05-08T15:42:16.200Z,98945.00
2023-05-08T15:44:54.557Z,98952.00
2023-05-08T15:47:23.356Z,98938.00
2023-05-08T15:49:50.692Z,98940.00
2023-05-08T15:52:18.769Z,98946.00
2023-05-08T15:54:49.019Z,98948.00
2023-05-08T15:57:15.829Z,98952.00
2023-05-08T15:59:42.619Z,98960.00
2023-05-08T16:02:09.141Z,98959.00
2023-05-08T16:04:36.064Z,98957.00
2023-05-08T16:07:02.899Z,98951.00
2023-05-08T16:09:29.439Z,98958.00
2023-05-08T16:11:56.078Z,98953.00
2023-05-08T16:14:22.765Z,98958.00
2023-05-08T16:16:49.254Z,98960.00
2023-05-08T16:19:15.907Z,98960.00
2023-05-08T16:21:42.475Z,98959.00
2023-05-08T16:24:09.001Z,98968.00
2023-05-08T16:26:35.491Z,98960.00
2023-05-08T16:29:02.137Z,98955.00
2023-05-08T16:31:29.013Z,98965.00
2023-05-08T16:33:55.681Z,98959.00
2023-05-08T16:36:22.138Z,98960.00
2023-05-08T16:38:48.717Z,98952.00
2023-05-08T16:41:15.210Z,98953.00
2023-05-08T16:43:41.695Z,98941.00
2023-05-08T16:46:10.394Z,98946.00
2023-05-08T16:48:36.941Z,98942.00
2023-05-08T16:51:03.556Z,98946.00
2023-05-08T16:53:31.839Z,98955.00
2023-05-08T16:55:58.320Z,98954.00
2023-05-08T16:58:27.150Z,98947.00
2023-05-08T17:00:53.703Z,98940.00
2023-05-08T17:03:20.375Z,98939.00
2023-05-08T17:05:46.934Z,98949.00
2023-05-08T17:08:13.487Z,98947.00
2023-05-08T17:10:41.199Z,98939.00
2023-05-08T17:13:07.762Z,98952.00
2023-05-08T17:15:34.419Z,98950.00
2023-05-08T17:18:01.144Z,98947.00
2023-05-08T17:20:27.701Z,98961.00
2023-05-08T17:22:54.440Z,98960.00
2023-05-08T17:25:22.426Z,98956.00
2023-05-08T17:27:49.097Z,98957.00
2023-05-08T17:30:16.908Z,98954.00
2023-05-08T17:32:43.854Z,98956.00
2023-05-08T17:35:10.482Z,98954.00
2023-05-08T17:37:37.245Z,98953.00
2023-05-08T17:40:04.184Z,98952.00
2023-05-08T17:42:30.815Z,98949.00
2023-05-08T17:44:57.362Z,98951.00
2023-05-08T17:47:23.889Z,98948.00
2023-05-08T17:49:50.543Z,98956.00
2023-05-08T17:52:17.248Z,98955.00
2023-05-08T17:54:43.787Z,98961.00
2023-05-08T17:57:10.301Z,98956.00
2023-05-08T17:59:36.853Z,98955.00
2023-05-08T18:02:03.407Z,98965.00
2023-05-08T18:04:29.935Z,98962.00
2023-05-08T18:06:56.414Z,98971.00
2023-05-08T18:09:22.963Z,98979.00
2023-05-08T18:11:49.534Z,98980.00
2023-05-08T18:14:16.227Z,98973.00
2023-05-08T18:16:42.717Z,98973.00
2023-05-08T18:19:09.257Z,98975.00
2023-05-08T18:21:35.844Z,98972.00
2023-05-08T18:24:02.391Z,98966.00
2023-05-08T18:26:28.858Z,98968.00
2023-05-08T18:28:55.385Z,98967.00
2023-05-08T18:31:22.014Z,98968.00
2023-05-08T18:33:48.603Z,98973.00
2023-05-08T18:36:15.131Z,98980.00
2023-05-08T18:38:42.899Z,98976.00
2023-05-08T18:41:09.435Z,98973.00
2023-05-08T18:43:36.011Z,98976.00
2023-05-08T18:46:12.983Z,98979.00
2023-05-08T18:48:41.077Z,98975.00
2023-05-08T18:51:07.788Z,98976.00
2023-05-08T18:53:38.198Z,98979.00
2023-05-08T18:56:05.570Z,98974.00
2023-05-08T18:58:32.574Z,98970.00
2023-05-08T19:00:59.414Z,98968.00
2023-05-08T19:03:26.451Z,98976.00
2023-05-08T19:05:55.078Z,98970.00
2023-05-08T19:08:21.703Z,98968.00
2023-05-08T19:10:48.314Z,98966.00
2023-05-08T19:13:16.509Z,98953.00
2023-05-08T19:15:43.189Z,98957.00
2023-05-08T19:18:09.843Z,98963.00
2023-05-08T19:20:37.064Z,98966.00
2023-05-08T19:23:03.602Z,98957.00
2023-05-08T19:25:30.664Z,98964.00
2023-05-08T19:27:58.678Z,98970.00
2023-05-08T19:30:25.642Z,98970.00
2023-05-08T19:32:52.878Z,98968.00
2023-05-08T19:35:19.854Z,98965.00
2023-05-08T19:37:47.077Z,98973.00
2023-05-08T19:40:16.426Z,98966.00
2023-05-08T19:42:46.047Z,98962.00
2023-05-08T19:45:13.171Z,98964.00
2023-05-08T19:47:43.256Z,98954.00
2023-05-08T19:50:12.484Z,98968.00
2023-05-08T19:52:39.374Z,98976.00
2023-05-08T19:55:06.528Z,98971.00
2023-05-08T19:57:33.040Z,98964.00
2023-05-08T20:00:00.006Z,98968.00
2023-05-08T20:02:28.917Z,98967.00
2023-05-08T20:05:21.222Z,98966.00
2023-05-08T20:07:42.082Z,98972.00
2023-05-08T20:10:09.637Z,98975.00
2023-05-08T20:12:36.627Z,98978.00
2023-05-08T20:15:03.553Z,98974.00
2023-05-08T20:17:30.625Z,98977.00
2023-05-08T20:19:57.194Z,98969.00
2023-05-08T20:22:23.697Z,98972.00
2023-05-08T20:24:50.204Z,98976.00
2023-05-08T20:27:16.888Z,98976.00
2023-05-08T20:29:43.851Z,98980.00
2023-05-08T20:32:14.573Z,98971.00
2023-05-08T20:34:41.509Z,98974.00
2023-05-08T20:37:08.075Z,98973.00
2023-05-08T20:39:34.654Z,98970.00
2023-05-08T20:42:01.234Z,98965.00
2023-05-08T20:44:27.776Z,98967.00
2023-05-08T20:46:54.272Z,98967.00
2023-05-08T20:49:20.796Z,98968.00
2023-05-08T20:51:50.330Z,98968.00
2023-05-08T20:54:17.034Z,98968.00
2023-05-08T20:56:43.582Z,98959.00
2023-05-08T20:59:11.407Z,98961.00
2023-05-08T21:01:38.121Z,98963.00
2023-05-08T21:04:04.756Z,98961.00
2023-05-08T21:06:32.144Z,98958.00
2023-05-08T21:08:58.676Z,98963.00
2023-05-08T21:11:25.275Z,98962.00
2023-05-08T21:13:51.868Z,98965.00
2023-05-08T21:16:18.823Z,98958.00
2023-05-08T21:18:45.735Z,98951.00
2023-05-08T21:21:19.894Z,98962.00
2023-05-08T21:23:46.786Z,98952.00
2023-05-08T21:26:13.332Z,98953.00
2023-05-08T21:28:39.938Z,98946.00
2023-05-08T21:31:06.699Z,98943.00
2023-05-08T21:33:33.854Z,98940.00
2023-05-08T21:36:00.703Z,98944.00
2023-05-08T21:38:27.374Z,98936.00
2023-05-08T21:40:54.384Z,98931.00
2023-05-08T21:43:21.203Z,98934.00
2023-05-08T21:45:47.732Z,98937.00
2023-05-08T21:48:14.408Z,98928.00
2023-05-08T21:50:44.173Z,98928.00
2023-05-08T21:53:10.824Z,98918.00
2023-05-08T21:55:37.366Z,98918.00
2023-05-08T21:58:03.974Z,98922.00
2023-05-08T22:00:30.546Z,98917.00
2023-05-08T22:02:57.213Z,98918.00
2023-05-08T22:05:24.407Z,98914.00
2023-05-08T22:07:50.949Z,98907.00
2023-05-08T22:10:17.611Z,98910.00
2023-05-08T22:12:44.141Z,98912.00
2023-05-08T22:15:25.491Z,98909.00
2023-05-08T22:17:56.240Z,98913.00
2023-05-08T22:20:23.020Z,98906.00
2023-05-08T22:22:49.604Z,98905.00
2023-05-08T22:25:16.337Z,98906.00
2023-05-08T22:27:42.935Z,98905.00
2023-05-08T22:30:09.631Z,98903.00
2023-05-08T22:32:36.587Z,98898.00
2023-05-08T22:35:03.431Z,98902.00
2023-05-08T22:37:30.383Z,98897.00
2023-05-08T22:39:56.973Z,98889.00
2023-05-08T22:42:24.083Z,98894.00
2023-05-08T22:44:50.951Z,98889.00
2023-05-08T22:47:17.537Z,98887.00
2023-05-08T22:49:44.103Z,98887.00
2023-05-08T22:52:10.658Z,98895.00
2023-05-08T22:54:37.156Z,98884.00
2023-05-08T22:57:03.907Z,98881.00
2023-05-08T22:59:30.586Z,98877.00
2023-05-08T23:01:57.958Z,98876.00
2023-05-08T23:04:24.765Z,98874.00
2023-05-08T23:06:51.439Z,98867.00
2023-05-08T23:09:17.984Z,98872.00
2023-05-08T23:11:44.644Z,98870.00
2023-05-08T23:14:11.187Z,98862.00
2023-05-08T23:16:37.772Z,98859.00
2023-05-08T23:19:04.616Z,98856.00
2023-05-08T23:21:32.101Z,98844.00
2023-05-08T23:23:58.940Z,98854.00
2023-05-08T23:26:26.073Z,98845.00
2023-05-08T23:28:52.812Z,98847.00
2023-05-08T23:31:19.431Z,98844.00
2023-05-08T23:33:45.946Z,98846.00
2023-05-08T23:36:12.472Z,98839.00
2023-05-08T23:38:38.984Z,98832.00
2023-05-08T23:41:05.554Z,98826.00
2023-05-08T23:43:32.108Z,98828.00
2023-05-08T23:45:58.788Z,98828.00
2023-05-08T23:48:26.592Z,98821.00
2023-05-08T23:50:53.438Z,98825.00
2023-05-08T23:53:20.020Z,98817.00
2023-05-08T23:55:49.913Z,98815.00
2023-05-08T23:58:18.263Z,98812.00
